Terminal Aerodrome Forecast
Issued by NWS Amarillo, TX

Home | Current Version | Previous Version | Text Only | Print | Product List | Glossary On
Versions: 1 2 3 4 5 6 7 8 9 10 11 12 13 14 15 16 17 18 19
916
FTUS44 KAMA 301133
TAFGUY
TAF
KGUY 301133Z 3012/3112 29003KT P6SM OVC080
     FM301400 30003KT 6SM BR VCSH BKN020
     FM301900 34008KT P6SM BKN050 OVC150 PROB30 3021/3103 TSRA
      BKN060CB=

USA.gov is the U.S. government's official web portal to all federal, state and local government web resources and services.